Aérodrome :







RETROUVEZ-NOUS SUR...

 
LOGIN :

S'inscrire | Disclaimer

   EN    FR    IT 

 









Légende :    VFR   VFR Marginal   IFR   IFR Intensif   IFR Très Intensif
Visi : 
Plafond : 
>= 8 km
>= 3000ft
5 à 8 km
1000 à 3000 ft
1500m à 5 km
500 à 1000 ft
800 à 1500m
200 à 500 ft
< 800m
< 200 ft
Symboles :   Orages  Brouillard  Fortes neiges  Fortes précipitations  Vent > 20 kt






- Altitude de l'aérodrome : 1194 ft


KPSF - Pittsfield Municipal

DERNIER METAR :
  • 020154Z AUTO 22011G18KT 10SM BKN047 BKN055 02/M03 A2962 RMK AO2 SLP026 T00221033

METARs EXPIRÉS :
  • 020054Z AUTO 20013G20KT 10SM FEW029 OVC055 03/M02 A2959 RMK AO2 SLP015 T00281022

TAF KPSF
Valide du 02 à 00h jusqu'au 03 à 00h UTC


012357Z 0200/0224 21011G18KT P6SM FEW020 SCT028 OVC040
TEMPO 0200/0204 BKN028 OVC035
FM020400 22009KT P6SM SCT025 OVC035
FM021300 23011KT P6SM VCSH OVC030
FM021900 27013G23KT P6SM VCSH SCT030 BKN035
FIR KZBW / Amérique du Nord



MET'MAP, la Météo Aéronautique d'un coup d'oeil ! - Copyright ORBIFLY Décembre 2007 - Disclaimer

ORBIFLY MET'MAP TEAM :

Programmation & Développement : Alexandra Zaïnal
Sur une idée originale de : Baudouin d'Aumeries
Assistance à la programmation : Marc-Olivier Méhu
Soutien technique & logistique : Manuel Goepfert

Contact : metmap@orbifly.com




SOURCES & CREDITS :

   NOAA